Historique des mesures à Cassis (13260), France
Quotidien Résumé Janvier 20, 2017 Unités:  US    Métrique   Métrique/US
« Précédent (Jour)
Suivant (Jour) »
Quotidien Hebdomadaire Mensuel Annuel Période au choix
  Maximum: Minimum: Moyenne:
Température: 32 °F 46.2 °F 48.9 °F
Point de rosée: 32 °F 28 °F 32 °F
Humidité: Humidity % 47 % 49 %
Vitesse du vent: WindSpeedKMH mph 0.0 mph 0.9 mph
Rafales: WindSpeedGustKMH mph - -
Vent:- - SE
Pression: 0 in 30.2 in -
Précipitations: 0 in    
Historical Graphs
 
 
Mesures pour : Janvier 20, 2017
Heure Temperature Point de rosée Pression Vent Vitesse du vent Rafales Humidité Pluie (par heure) Conditions
32 °F 32 °F 0 in Calm     Humidity % 0 in SoftwareType W/m2
00:10 48.4 °F 30.9 °F 30.2 in Calm     51 % 0 in open2300-1.11 W/m2
01:11 47.8 °F 30.6 °F 30.2 in Calm     51 % 0 in open2300-1.11 W/m2
02:10 47.7 °F 30.7 °F 30.2 in Calm     52 % 0 in open2300-1.11 W/m2
03:11 47.5 °F 30.2 °F 30.2 in Calm     51 % 0 in open2300-1.11 W/m2
04:10 46.9 °F 29.1 °F 30.2 in Calm     50 % 0 in open2300-1.11 W/m2
05:11 46.9 °F 28.8 °F 30.2 in Calm   1.8 mph 49 % 0 in open2300-1.11 W/m2
06:10 46.8 °F 29.1 °F 30.2 in Calm     50 % 0 in open2300-1.11 W/m2
07:12 46.6 °F 28.4 °F 30.2 in Calm     49 % 0 in open2300-1.11 W/m2
08:10 46.2 °F 28 °F 30.2 in Calm     49 % 0 in open2300-1.11 W/m2
09:11 46.8 °F 28.6 °F 30.2 in Calm     49 % 0 in open2300-1.11 W/m2
10:10 48.4 °F 29.5 °F 30.2 in East 4.7 mph 4.7 mph 48 % 0 in open2300-1.11 W/m2
11:11 50.9 °F 32.4 °F 30.2 in Calm   8.2 mph 49 % 0 in open2300-1.11 W/m2
12:10 52.3 °F 32.5 °F 30.2 in SE 1.8 mph 6.1 mph 47 % 0 in open2300-1.11 W/m2
13:11 52.9 °F 33.1 °F 30.2 in ESE 10.5 mph 10.5 mph 47 % 0 in open2300-1.11 W/m2
14:11 53.6 °F 33.8 °F 30.2 in ESE 2.1 mph 2.1 mph 47 % 0 in open2300-1.11 W/m2
15:11 54 °F 34.2 °F 30.2 in SE 3.2 mph 3.2 mph 47 % 0 in open2300-1.11 W/m2
16:10 52.2 °F 33.6 °F 30.2 in Calm   4.3 mph 49 % 0 in open2300-1.11 W/m2
17:11 51.4 °F 33.4 °F 30.2 in SSE 1.4 mph 3.5 mph 50 % 0 in open2300-1.11 W/m2
18:10 51.1 °F 35.1 °F 30.2 in Calm     54 % 0 in open2300-1.11 W/m2
19:11 49.5 °F 36.1 °F 30.2 in Calm     60 % 0 in open2300-1.11 W/m2
20:10 50.2 °F 35.4 °F 30.2 in Calm   4.7 mph 57 % 0 in open2300-1.11 W/m2
21:11 50.4 °F 34.9 °F 30.2 in Calm     55 % 0 in open2300-1.11 W/m2
22:10 50.4 °F 34.3 °F 30.2 in Calm     54 % 0 in open2300-1.11 W/m2
23:11 50.5 °F 34.5 °F 30.2 in Calm     54 % 0 in open2300-1.11 W/m2
Observations météo à CASSIS
WU-History script by Weather Underground - 1 mb